Weather at George Bush Intercontinental Houston Airport

Public forecast

Using degrees Fahrenheit for public forecast. Weather courtesy of forecast.io.

Current aviation weather report (METAR) for George Bush Intercontinental Houston Airport

Retrieved 2021/05/11 18:53 UTC (46 minutes ago):

KIAH 111853Z 15016G23KT 10SM BKN035 BKN250 30/22 A2990 RMK AO2 PK WND 14026/1830 SLP124 T03000217

Aviation forecast (TAF) for George Bush Intercontinental Houston Airport

Retrieved 2021/05/11 18:39 UTC (60 minutes ago):

TAF KIAH 111737Z 1118/1224 14015G25KT P6SM SCT030 SCT250 FM112000 14010G20KT P6SM BKN050 FM112200 13010KT P6SM SCT020 BKN050 FM120000 07008KT P6SM BKN035 TEMPO 1202/1204 4SM TSRA BKN015CB FM120400 07010KT 6SM -SHRA BR VCTS OVC015CB FM121000 04010KT P6SM VCSH SCT008 OVC015